Terminal Aerodrome Forecast
Issued by NWS

Home | Current Version | Previous Version | Text Only | Print | Product List | Glossary Off
Versions: 1 2 3 4 5 6 7 8 9 10 11 12 13 14 15 16

000
FTUS43 KIWX 230535
TAFSBN
TAF
KSBN 230535Z 2306/2406 22011KT P6SM SCT040
     FM231000 26007KT 5SM BR BKN020
     FM231400 34006KT P6SM BKN120
     FM240200 06009KT 3SM -SHRA BR BKN020=

USA.gov is the U.S. government's official web portal to all federal, state and local government web resources and services.